Time;durP1;ratioP1;P1;durP2;ratioP2;P2;SDS_P1;SDS_P2;PMS_P1;PMS_P2;Temp;Humidity;BMP_temperature;BMP_pressure;BME280_temperature;BME280_humidity;BME280_pressure;Samples;Min_cycle;Max_cycle;Signal;HPM_P1;HPM_P2
2021/01/12 00:00:28;;;;;;;;;8.33;8.33;;;;;;;;5058254;28;8857;-74
2021/01/12 00:02:56;;;;;;;;;10.33;10.33;;;;;;;;5060900;28;9660;-75
2021/01/12 00:05:23;;;;;;;;;10.33;8.33;;;;;;;;5058700;28;8842;-75
2021/01/12 00:07:49;;;;;;;;;14.33;12.00;;;;;;;;5056451;28;8834;-73
2021/01/12 00:10:15;;;;;;;;;15.00;12.00;;;;;;;;5059907;28;8945;-74
2021/01/12 00:12:41;;;;;;;;;9.00;9.00;;;;;;;;5059099;28;8855;-73
2021/01/12 00:15:07;;;;;;;;;11.67;10.33;;;;;;;;5060320;28;8993;-74
2021/01/12 00:17:33;;;;;;;;;10.33;9.00;;;;;;;;5058038;28;8837;-73
2021/01/12 00:20:00;;;;;;;;;12.00;10.33;;;;;;;;5061631;28;8835;-73
2021/01/12 00:22:26;;;;;;;;;11.67;11.67;;;;;;;;5058236;28;8846;-74
2021/01/12 00:24:52;;;;;;;;;13.33;11.67;;;;;;;;5062164;28;9011;-74
2021/01/12 00:27:22;;;;;;;;;10.67;8.33;;;;;;;;5060265;28;8972;-75
2021/01/12 00:29:49;;;;;;;;;11.00;8.00;;;;;;;;5058827;28;8827;-74
2021/01/12 00:32:15;;;;;;;;;13.00;10.33;;;;;;;;5059682;28;8841;-73
2021/01/12 00:34:41;;;;;;;;;11.33;8.00;;;;;;;;5059755;28;8842;-74
2021/01/12 00:37:08;;;;;;;;;11.67;8.67;;;;;;;;5058693;28;8869;-73
2021/01/12 00:39:34;;;;;;;;;12.33;8.33;;;;;;;;5060692;28;9638;-73
2021/01/12 00:42:00;;;;;;;;;8.33;8.00;;;;;;;;5057954;28;8846;-73
2021/01/12 00:44:26;;;;;;;;;13.33;9.67;;;;;;;;5061281;28;8839;-73
2021/01/12 00:46:53;;;;;;;;;10.33;10.33;;;;;;;;5058310;28;8853;-73
2021/01/12 00:49:19;;;;;;;;;13.33;11.00;;;;;;;;5059929;28;9731;-74
2021/01/12 00:51:46;;;;;;;;;14.67;9.33;;;;;;;;5059008;28;8959;-74
2021/01/12 00:54:13;;;;;;;;;11.33;9.67;;;;;;;;5059227;28;9794;-73
2021/01/12 00:56:39;;;;;;;;;11.67;8.67;;;;;;;;5059570;28;8838;-73
2021/01/12 00:59:05;;;;;;;;;14.00;10.00;;;;;;;;5058311;28;8880;-73
2021/01/12 01:01:31;;;;;;;;;17.33;12.00;;;;;;;;5056874;28;9054;-72
2021/01/12 01:03:57;;;;;;;;;15.75;13.50;;;;;;;;5057250;28;8869;-72
2021/01/12 01:06:23;;;;;;;;;12.00;9.33;;;;;;;;5053903;28;8838;-73
2021/01/12 01:08:49;;;;;;;;;12.00;11.00;;;;;;;;5052940;28;8958;-73
2021/01/12 01:11:16;;;;;;;;;9.00;9.00;;;;;;;;5053279;28;8950;-73
2021/01/12 01:13:42;;;;;;;;;11.25;9.25;;;;;;;;5059172;28;8863;-73
2021/01/12 01:16:09;;;;;;;;;14.00;10.67;;;;;;;;5059673;28;8954;-73
2021/01/12 01:18:35;;;;;;;;;8.25;7.75;;;;;;;;5053697;28;8964;-74
2021/01/12 01:21:01;;;;;;;;;14.50;12.00;;;;;;;;5060811;28;8846;-73
2021/01/12 01:23:27;;;;;;;;;12.75;11.25;;;;;;;;5057591;28;8876;-73
2021/01/12 01:25:53;;;;;;;;;14.25;8.50;;;;;;;;5053858;28;8833;-73
2021/01/12 01:28:20;;;;;;;;;11.00;8.00;;;;;;;;5061151;28;9096;-73
2021/01/12 01:30:46;;;;;;;;;13.33;13.33;;;;;;;;5062843;28;9074;-73
2021/01/12 01:33:13;;;;;;;;;13.33;8.33;;;;;;;;5058749;28;8966;-73
2021/01/12 01:35:38;;;;;;;;;9.67;9.33;;;;;;;;5061823;28;8895;-74
2021/01/12 01:38:04;;;;;;;;;14.00;12.67;;;;;;;;5063925;28;8954;-74
2021/01/12 01:40:31;;;;;;;;;10.33;10.33;;;;;;;;5060824;28;9753;-74
2021/01/12 01:42:57;;;;;;;;;9.00;7.50;;;;;;;;5060200;28;8961;-73
2021/01/12 01:45:24;;;;;;;;;17.75;13.50;;;;;;;;5060908;28;9035;-72
2021/01/12 01:47:50;;;;;;;;;15.75;12.00;;;;;;;;5063031;28;8837;-73
2021/01/12 01:50:17;;;;;;;;;11.75;10.75;;;;;;;;5061736;28;9753;-73
2021/01/12 01:52:44;;;;;;;;;16.25;11.50;;;;;;;;5061752;28;8960;-73
2021/01/12 01:55:12;;;;;;;;;17.50;10.75;;;;;;;;5062824;28;8847;-73
2021/01/12 01:57:38;;;;;;;;;12.50;12.25;;;;;;;;5061016;28;8972;-73
2021/01/12 02:00:05;;;;;;;;;11.00;9.25;;;;;;;;5061357;28;8974;-72
2021/01/12 02:02:37;;;;;;;;;16.00;14.75;;;;;;;;5063195;28;8970;-73
2021/01/12 02:05:07;;;;;;;;;14.00;11.50;;;;;;;;5060858;28;8825;-72
2021/01/12 02:07:33;;;;;;;;;10.75;9.75;;;;;;;;5059029;28;8963;-72
2021/01/12 02:10:01;;;;;;;;;12.50;9.00;;;;;;;;5061286;28;8975;-72
2021/01/12 02:12:28;;;;;;;;;15.00;10.00;;;;;;;;5059930;28;8989;-73
2021/01/12 02:14:54;;;;;;;;;13.50;12.00;;;;;;;;5060253;28;8863;-72
2021/01/12 02:17:20;;;;;;;;;10.25;7.25;;;;;;;;5063049;28;9136;-73
2021/01/12 02:19:52;;;;;;;;;14.00;10.25;;;;;;;;5061044;28;8867;-74
2021/01/12 02:22:22;;;;;;;;;14.00;11.50;;;;;;;;5055859;28;9005;-74
2021/01/12 02:24:48;;;;;;;;;14.75;12.25;;;;;;;;5064242;28;8861;-74
2021/01/12 02:27:24;;;;;;;;;9.00;8.75;;;;;;;;5061630;28;8860;-74
2021/01/12 02:29:50;;;;;;;;;12.00;11.25;;;;;;;;5060466;28;8958;-74
2021/01/12 02:32:17;;;;;;;;;11.25;8.75;;;;;;;;5061905;28;8844;-75
2021/01/12 02:34:44;;;;;;;;;17.50;12.25;;;;;;;;5061343;28;8823;-74
2021/01/12 02:37:10;;;;;;;;;15.25;13.75;;;;;;;;5060588;28;8837;-73
2021/01/12 02:39:35;;;;;;;;;13.25;10.25;;;;;;;;5058131;28;8842;-74
2021/01/12 02:42:12;;;;;;;;;11.00;9.75;;;;;;;;5059297;28;8969;-73
2021/01/12 02:44:38;;;;;;;;;10.00;8.00;;;;;;;;5060750;28;8971;-73
2021/01/12 02:47:05;;;;;;;;;10.75;10.75;;;;;;;;5062399;28;8962;-72
2021/01/12 02:49:31;;;;;;;;;13.25;11.25;;;;;;;;5059209;28;8860;-74
2021/01/12 02:51:57;;;;;;;;;16.25;12.25;;;;;;;;5063341;28;8850;-73
2021/01/12 02:54:24;;;;;;;;;13.00;13.00;;;;;;;;5059037;28;8843;-73
2021/01/12 02:56:49;;;;;;;;;14.00;12.25;;;;;;;;5061419;28;8842;-73
2021/01/12 02:59:16;;;;;;;;;14.25;10.25;;;;;;;;5058015;28;8823;-72
2021/01/12 03:01:42;;;;;;;;;15.50;13.00;;;;;;;;5060290;28;9718;-73
2021/01/12 03:04:08;;;;;;;;;16.25;14.00;;;;;;;;5062027;28;8839;-74
2021/01/12 03:06:34;;;;;;;;;16.75;11.00;;;;;;;;5061005;28;8949;-73
2021/01/12 03:09:00;;;;;;;;;14.75;10.50;;;;;;;;5059747;28;8973;-77
2021/01/12 03:11:26;;;;;;;;;17.00;13.00;;;;;;;;5061591;28;8839;-74
2021/01/12 03:13:52;;;;;;;;;12.25;10.00;;;;;;;;5059802;28;8912;-74
2021/01/12 03:16:19;;;;;;;;;15.25;12.75;;;;;;;;5059533;28;8965;-74
2021/01/12 03:18:45;;;;;;;;;14.00;11.00;;;;;;;;5059873;28;8849;-73
2021/01/12 03:21:12;;;;;;;;;10.50;10.50;;;;;;;;5058681;28;8960;-74
2021/01/12 03:23:38;;;;;;;;;10.00;10.00;;;;;;;;5059012;28;8834;-74
2021/01/12 03:26:04;;;;;;;;;10.75;8.50;;;;;;;;5060737;28;8851;-74
2021/01/12 03:28:29;;;;;;;;;11.00;9.00;;;;;;;;5060564;28;8862;-74
2021/01/12 03:30:55;;;;;;;;;7.50;4.75;;;;;;;;5057547;28;8876;-74
2021/01/12 03:33:25;;;;;;;;;14.50;11.50;;;;;;;;5059887;28;8871;-74
2021/01/12 03:35:51;;;;;;;;;6.50;6.50;;;;;;;;5059520;28;9552;-74
2021/01/12 03:38:17;;;;;;;;;12.50;11.00;;;;;;;;5058604;28;8896;-73
2021/01/12 03:40:43;;;;;;;;;13.50;10.00;;;;;;;;5059628;28;8841;-73
2021/01/12 03:43:09;;;;;;;;;10.50;9.50;;;;;;;;5059329;28;8843;-73
2021/01/12 03:45:34;;;;;;;;;10.50;8.50;;;;;;;;5060253;28;8842;-74
2021/01/12 03:48:00;;;;;;;;;10.00;4.50;;;;;;;;5059207;28;9617;-73
2021/01/12 03:50:28;;;;;;;;;11.75;10.25;;;;;;;;5059943;28;8850;-74
2021/01/12 03:52:54;;;;;;;;;9.50;9.50;;;;;;;;5059375;28;8851;-74
2021/01/12 03:55:20;;;;;;;;;11.50;10.00;;;;;;;;5057885;28;9597;-75
2021/01/12 03:57:46;;;;;;;;;12.25;8.00;;;;;;;;5058950;28;8835;-74
2021/01/12 04:00:12;;;;;;;;;11.00;10.50;;;;;;;;5060850;28;8882;-75
2021/01/12 04:02:38;;;;;;;;;12.00;8.50;;;;;;;;5059629;28;8954;-75
2021/01/12 04:05:04;;;;;;;;;11.50;10.25;;;;;;;;5058390;28;8843;-75
2021/01/12 04:07:31;;;;;;;;;10.75;10.00;;;;;;;;5060028;28;8842;-75
2021/01/12 04:09:57;;;;;;;;;10.50;9.00;;;;;;;;5058316;28;9670;-73
2021/01/12 04:12:23;;;;;;;;;13.50;10.25;;;;;;;;5060969;28;8835;-71
2021/01/12 04:14:49;;;;;;;;;9.50;9.50;;;;;;;;5059001;28;8831;-71
2021/01/12 04:17:15;;;;;;;;;10.00;7.75;;;;;;;;5060622;28;8976;-72
2021/01/12 04:19:41;;;;;;;;;9.00;8.75;;;;;;;;5062000;28;8920;-70
2021/01/12 04:22:07;;;;;;;;;14.75;11.50;;;;;;;;5060824;28;8857;-70
2021/01/12 04:24:34;;;;;;;;;12.50;10.00;;;;;;;;5061635;28;8835;-71
2021/01/12 04:27:00;;;;;;;;;14.25;10.50;;;;;;;;5058113;28;9110;-71
2021/01/12 04:29:26;;;;;;;;;9.50;9.00;;;;;;;;5061449;28;8930;-72
2021/01/12 04:31:53;;;;;;;;;17.25;15.25;;;;;;;;5058364;28;8899;-70
2021/01/12 04:34:18;;;;;;;;;10.50;10.50;;;;;;;;5059894;28;8949;-70
2021/01/12 04:36:44;;;;;;;;;10.00;9.00;;;;;;;;5059539;28;8843;-71
2021/01/12 04:39:10;;;;;;;;;10.00;10.00;;;;;;;;5059189;28;8841;-72
2021/01/12 04:41:37;;;;;;;;;16.75;11.00;;;;;;;;5060410;28;8847;-70
2021/01/12 04:44:03;;;;;;;;;15.75;10.25;;;;;;;;5061973;28;8843;-71
2021/01/12 04:46:29;;;;;;;;;10.75;9.50;;;;;;;;5058070;28;8958;-71
2021/01/12 04:48:55;;;;;;;;;9.00;9.00;;;;;;;;5060805;28;9598;-72
2021/01/12 04:51:23;;;;;;;;;11.00;8.50;;;;;;;;5058682;28;8950;-71
2021/01/12 04:53:49;;;;;;;;;13.75;11.00;;;;;;;;5059729;28;9035;-70
2021/01/12 04:56:15;;;;;;;;;6.75;4.25;;;;;;;;5059189;28;8823;-71
2021/01/12 04:58:43;;;;;;;;;14.00;12.50;;;;;;;;5058745;28;8841;-70
2021/01/12 05:01:11;;;;;;;;;11.50;9.00;;;;;;;;5061215;28;8843;-71
2021/01/12 05:03:37;;;;;;;;;13.00;10.00;;;;;;;;5062180;28;8861;-71
2021/01/12 05:06:03;;;;;;;;;9.75;7.75;;;;;;;;5064726;28;8835;-71
2021/01/12 05:08:29;;;;;;;;;15.00;10.25;;;;;;;;5061497;28;8842;-70
2021/01/12 05:10:57;;;;;;;;;13.75;10.25;;;;;;;;5064413;28;8961;-72
2021/01/12 05:13:24;;;;;;;;;12.75;10.75;;;;;;;;5065018;28;8834;-71
2021/01/12 05:15:53;;;;;;;;;12.00;9.00;;;;;;;;5061585;28;8831;-73
2021/01/12 05:18:19;;;;;;;;;12.50;5.00;;;;;;;;5063742;28;8956;-72
2021/01/12 05:20:45;;;;;;;;;12.50;10.00;;;;;;;;5062465;28;9068;-71
2021/01/12 05:23:13;;;;;;;;;10.75;10.00;;;;;;;;5062336;28;8949;-72
2021/01/12 05:25:40;;;;;;;;;10.25;10.00;;;;;;;;5063239;28;8989;-71
2021/01/12 05:28:06;;;;;;;;;15.00;10.25;;;;;;;;5061716;28;8834;-71
2021/01/12 05:30:32;;;;;;;;;12.50;11.00;;;;;;;;5063797;28;8835;-72
2021/01/12 05:32:59;;;;;;;;;16.25;10.25;;;;;;;;5061241;28;8834;-71
2021/01/12 05:35:29;;;;;;;;;11.25;9.50;;;;;;;;5063884;28;8847;-71
2021/01/12 05:37:56;;;;;;;;;13.00;13.00;;;;;;;;5061041;28;8989;-70
2021/01/12 05:40:24;;;;;;;;;11.50;10.25;;;;;;;;5063750;28;8859;-72
2021/01/12 05:42:50;;;;;;;;;17.25;10.50;;;;;;;;5061168;28;8834;-70
2021/01/12 05:45:16;;;;;;;;;13.50;10.00;;;;;;;;5062682;28;8845;-71
2021/01/12 05:47:42;;;;;;;;;12.50;11.00;;;;;;;;5062512;28;8996;-71
2021/01/12 05:50:17;;;;;;;;;12.25;10.50;;;;;;;;5061374;28;8888;-72
2021/01/12 05:52:52;;;;;;;;;7.50;7.00;;;;;;;;5062470;28;8969;-71
2021/01/12 05:55:19;;;;;;;;;19.00;13.75;;;;;;;;5061215;28;8992;-72
2021/01/12 05:57:48;;;;;;;;;18.00;12.00;;;;;;;;5060720;28;8819;-71
2021/01/12 06:00:15;;;;;;;;;16.00;12.00;;;;;;;;5062194;28;9050;-72
2021/01/12 06:02:42;;;;;;;;;14.75;11.00;;;;;;;;5058346;28;8936;-72
2021/01/12 06:05:10;;;;;;;;;14.75;13.00;;;;;;;;5061263;28;8983;-71
2021/01/12 06:07:38;;;;;;;;;11.00;11.00;;;;;;;;5062876;28;8831;-71
2021/01/12 06:10:06;;;;;;;;;14.50;12.75;;;;;;;;5060517;28;8952;-72
2021/01/12 06:12:33;;;;;;;;;10.25;8.50;;;;;;;;5065490;28;8946;-71
2021/01/12 06:14:59;;;;;;;;;18.75;13.00;;;;;;;;5060356;28;8888;-70
2021/01/12 06:17:30;;;;;;;;;11.00;5.00;;;;;;;;5063635;28;8815;-71
2021/01/12 06:20:01;;;;;;;;;23.25;21.25;;;;;;;;5059382;28;8863;-73
2021/01/12 06:22:28;;;;;;;;;16.75;13.00;;;;;;;;5060246;28;9026;-74
2021/01/12 06:25:06;;;;;;;;;16.00;14.25;;;;;;;;5062843;28;8843;-71
2021/01/12 06:27:32;;;;;;;;;16.50;14.25;;;;;;;;5060084;28;9018;-71
2021/01/12 06:29:59;;;;;;;;;12.50;10.25;;;;;;;;5063590;28;8904;-69
2021/01/12 06:32:26;;;;;;;;;14.00;12.50;;;;;;;;5060078;28;8910;-71
2021/01/12 06:34:53;;;;;;;;;19.25;13.50;;;;;;;;5062704;28;8864;-71
2021/01/12 06:37:20;;;;;;;;;18.00;14.00;;;;;;;;5061070;28;8965;-70
2021/01/12 06:39:47;;;;;;;;;14.00;13.00;;;;;;;;5061634;28;8844;-71
2021/01/12 06:42:14;;;;;;;;;18.00;15.75;;;;;;;;5061559;28;8839;-70
2021/01/12 06:44:41;;;;;;;;;16.00;13.75;;;;;;;;5060655;28;8848;-70
2021/01/12 06:47:08;;;;;;;;;16.75;15.50;;;;;;;;5062244;28;8949;-69
2021/01/12 06:49:35;;;;;;;;;18.50;16.00;;;;;;;;5059311;28;8982;-69
2021/01/12 06:52:01;;;;;;;;;11.75;11.75;;;;;;;;5053442;28;8841;-72
2021/01/12 06:54:31;;;;;;;;;16.50;13.00;;;;;;;;5059671;28;8821;-71
2021/01/12 06:56:59;;;;;;;;;16.00;16.00;;;;;;;;5059234;28;8838;-72
2021/01/12 06:59:32;;;;;;;;;18.50;13.00;;;;;;;;5058090;28;8980;-72
2021/01/12 07:01:58;;;;;;;;;19.50;13.25;;;;;;;;5057955;28;8957;-72
2021/01/12 07:04:27;;;;;;;;;10.50;7.00;;;;;;;;5054074;28;8838;-69
2021/01/12 07:06:56;;;;;;;;;17.00;15.50;;;;;;;;5059952;28;8846;-70
2021/01/12 07:09:23;;;;;;;;;30.25;29.75;;;;;;;;5058266;28;8879;-71
2021/01/12 07:11:49;;;;;;;;;19.25;15.75;;;;;;;;5059594;28;9094;-74
2021/01/12 07:14:24;;;;;;;;;16.50;16.50;;;;;;;;5059110;28;8870;-79
2021/01/12 07:16:50;;;;;;;;;15.25;14.00;;;;;;;;5061260;28;8821;-71
2021/01/12 07:19:16;;;;;;;;;15.00;14.00;;;;;;;;5060199;28;8851;-72
2021/01/12 07:21:42;;;;;;;;;18.75;17.50;;;;;;;;5060154;28;8979;-69
2021/01/12 07:24:16;;;;;;;;;23.75;17.75;;;;;;;;5060612;28;9585;-71
2021/01/12 07:26:45;;;;;;;;;12.50;12.50;;;;;;;;5058427;28;9035;-72
2021/01/12 07:29:12;;;;;;;;;17.25;14.25;;;;;;;;5058867;28;8853;-78
2021/01/12 07:31:39;;;;;;;;;20.50;14.75;;;;;;;;5060186;28;8850;-74
2021/01/12 07:34:14;;;;;;;;;21.50;19.25;;;;;;;;5058516;28;8835;-69
2021/01/12 07:36:40;;;;;;;;;17.75;17.75;;;;;;;;5059249;28;8805;-70
2021/01/12 07:39:07;;;;;;;;;18.33;13.67;;;;;;;;5057311;28;8968;-70
2021/01/12 07:41:33;;;;;;;;;14.33;11.00;;;;;;;;5061708;28;8977;-71
2021/01/12 07:43:59;;;;;;;;;15.67;14.33;;;;;;;;5058357;28;9579;-69
2021/01/12 07:46:25;;;;;;;;;18.33;15.33;;;;;;;;5061434;28;8870;-71
2021/01/12 07:48:52;;;;;;;;;19.00;15.33;;;;;;;;5058863;28;8873;-73
2021/01/12 07:51:26;;;;;;;;;20.33;17.00;;;;;;;;5060458;28;8873;-69
2021/01/12 07:53:52;;;;;;;;;15.00;13.00;;;;;;;;5058914;28;8881;-72
2021/01/12 07:56:18;;;;;;;;;17.00;16.00;;;;;;;;5060039;28;8876;-71
2021/01/12 07:58:44;;;;;;;;;23.00;19.67;;;;;;;;5059644;28;8839;-72
2021/01/12 08:01:11;;;;;;;;;22.00;21.00;;;;;;;;5058802;28;8964;-72
2021/01/12 08:03:37;;;;;;;;;20.67;19.33;;;;;;;;5060579;28;8930;-77
2021/01/12 08:06:04;;;;;;;;;21.00;20.00;;;;;;;;5058240;28;8889;-70
2021/01/12 08:08:30;;;;;;;;;21.00;17.00;;;;;;;;5061754;28;8823;-68
2021/01/12 08:10:56;;;;;;;;;20.67;17.67;;;;;;;;5057925;28;9597;-71
2021/01/12 08:13:23;;;;;;;;;24.00;22.33;;;;;;;;5061063;28;8863;-71
2021/01/12 08:15:49;;;;;;;;;19.67;17.67;;;;;;;;5058978;28;8867;-71
2021/01/12 08:18:16;;;;;;;;;22.67;19.33;;;;;;;;5060061;28;8867;-70
2021/01/12 08:20:43;;;;;;;;;23.33;17.67;;;;;;;;5061530;28;8942;-70
2021/01/12 08:23:11;;;;;;;;;21.33;20.00;;;;;;;;5060377;28;8839;-71
2021/01/12 08:25:37;;;;;;;;;24.33;19.00;;;;;;;;5058362;28;9007;-77
2021/01/12 08:28:04;;;;;;;;;18.00;16.00;;;;;;;;5061492;28;8854;-78
2021/01/12 08:30:30;;;;;;;;;29.50;25.25;;;;;;;;5058071;28;8830;-76
2021/01/12 08:32:58;;;;;;;;;26.67;20.33;;;;;;;;5061256;28;8843;-75
2021/01/12 08:35:25;;;;;;;;;25.00;22.00;;;;;;;;5060151;28;9089;-76
2021/01/12 08:37:52;;;;;;;;;21.00;18.25;;;;;;;;5064381;28;8869;-78
2021/01/12 08:40:19;;;;;;;;;29.00;25.75;;;;;;;;5063453;28;9013;-76
2021/01/12 08:42:48;;;;;;;;;28.75;27.00;;;;;;;;5062844;28;8938;-72
2021/01/12 08:45:14;;;;;;;;;27.50;22.00;;;;;;;;5064556;28;8869;-72
2021/01/12 08:47:41;;;;;;;;;27.00;22.75;;;;;;;;5061999;28;8859;-72
2021/01/12 08:50:07;;;;;;;;;28.00;22.75;;;;;;;;5062155;28;8838;-73
2021/01/12 08:52:35;;;;;;;;;20.25;15.00;;;;;;;;5062713;28;8992;-69
2021/01/12 08:55:01;;;;;;;;;26.50;26.25;;;;;;;;5063751;28;9024;-69
2021/01/12 08:57:28;;;;;;;;;28.25;24.00;;;;;;;;5062311;28;9689;-69
2021/01/12 08:59:53;;;;;;;;;23.50;22.00;;;;;;;;5061816;28;9076;-69
2021/01/12 09:02:20;;;;;;;;;25.50;22.00;;;;;;;;5059613;28;8872;-70
2021/01/12 09:04:46;;;;;;;;;26.25;24.75;;;;;;;;5056720;28;8942;-69
2021/01/12 09:07:15;;;;;;;;;28.00;24.00;;;;;;;;5061846;28;8860;-68
2021/01/12 09:09:50;;;;;;;;;28.00;25.75;;;;;;;;5063734;28;8924;-69
2021/01/12 09:12:16;;;;;;;;;32.00;25.00;;;;;;;;5060891;28;8993;-69
2021/01/12 09:14:46;;;;;;;;;27.00;23.75;;;;;;;;5060354;28;8932;-69
2021/01/12 09:17:15;;;;;;;;;28.25;23.75;;;;;;;;5059139;28;8829;-68
2021/01/12 09:19:41;;;;;;;;;21.50;18.25;;;;;;;;5058684;28;8944;-71
2021/01/12 19:00:44;;;;;;;;;41.50;37.50;;;;;;;;5109301;27;14432;-70
2021/01/12 19:03:10;;;;;;;;;45.50;42.50;;;;;;;;5078879;28;8960;-69
2021/01/12 19:05:39;;;;;;;;;43.00;38.33;;;;;;;;5074456;28;9577;-71
2021/01/12 19:08:08;;;;;;;;;46.25;41.50;;;;;;;;5075089;28;8850;-72
2021/01/12 19:10:34;;;;;;;;;47.67;40.00;;;;;;;;5076416;28;8923;-69
2021/01/12 19:13:01;;;;;;;;;32.00;27.67;;;;;;;;5076134;28;8835;-70
2021/01/12 19:15:27;;;;;;;;;35.33;32.33;;;;;;;;5076870;28;9007;-70
2021/01/12 19:17:55;;;;;;;;;37.00;33.00;;;;;;;;5072495;28;9098;-71
2021/01/12 19:20:21;;;;;;;;;33.33;30.67;;;;;;;;5075214;28;8928;-70
2021/01/12 19:22:47;;;;;;;;;40.00;38.33;;;;;;;;5074710;28;8938;-70
2021/01/12 19:25:15;;;;;;;;;37.33;33.33;;;;;;;;5081501;28;8887;-68
2021/01/12 19:27:41;;;;;;;;;32.33;30.33;;;;;;;;5075550;28;8968;-69
2021/01/12 19:30:07;;;;;;;;;39.33;38.67;;;;;;;;5073993;28;8976;-70
2021/01/12 19:32:40;;;;;;;;;30.67;26.33;;;;;;;;5075180;28;8969;-70
2021/01/12 19:35:08;;;;;;;;;39.00;34.33;;;;;;;;5075678;28;8889;-70
2021/01/12 19:37:34;;;;;;;;;39.33;39.00;;;;;;;;5073586;28;8830;-68
2021/01/12 19:40:00;;;;;;;;;45.67;38.67;;;;;;;;5073057;28;9034;-68
2021/01/12 19:42:27;;;;;;;;;37.67;33.00;;;;;;;;5074499;28;9003;-69
2021/01/12 19:44:53;;;;;;;;;46.00;39.33;;;;;;;;5077101;28;9004;-68
2021/01/12 19:47:19;;;;;;;;;40.67;34.67;;;;;;;;5075263;28;8942;-69
2021/01/12 19:49:45;;;;;;;;;46.00;40.67;;;;;;;;5075362;28;8835;-77
2021/01/12 19:52:12;;;;;;;;;41.00;38.33;;;;;;;;5073739;28;8847;-76
2021/01/12 19:54:39;;;;;;;;;37.33;35.00;;;;;;;;5076399;28;8930;-76
2021/01/12 19:57:05;;;;;;;;;50.67;38.33;;;;;;;;5077064;28;8878;-78
2021/01/12 19:59:31;;;;;;;;;35.33;33.67;;;;;;;;5074983;28;9134;-76
2021/01/12 20:01:57;;;;;;;;;45.00;37.33;;;;;;;;5074810;28;8865;-79
2021/01/12 20:04:26;;;;;;;;;37.00;35.33;;;;;;;;5075062;28;8975;-75
2021/01/12 20:06:52;;;;;;;;;47.00;41.00;;;;;;;;5076211;28;8953;-77
2021/01/12 20:09:19;;;;;;;;;38.00;36.00;;;;;;;;5076486;28;8846;-77
2021/01/12 20:11:45;;;;;;;;;39.00;37.00;;;;;;;;5061102;28;8830;-79
2021/01/12 20:14:12;;;;;;;;;41.33;37.33;;;;;;;;5064752;28;8839;-78
2021/01/12 20:16:43;;;;;;;;;43.67;39.00;;;;;;;;5061590;28;8903;-75
2021/01/12 20:19:19;;;;;;;;;42.00;38.33;;;;;;;;5058284;28;9534;-75
2021/01/12 20:21:51;;;;;;;;;31.67;30.33;;;;;;;;5061376;28;8951;-77
2021/01/12 20:24:28;;;;;;;;;45.67;39.33;;;;;;;;5058672;28;8901;-73
2021/01/12 20:26:55;;;;;;;;;37.67;32.00;;;;;;;;5065756;28;8989;-76
2021/01/12 20:29:22;;;;;;;;;42.33;39.33;;;;;;;;5059213;28;8952;-77
2021/01/12 20:31:48;;;;;;;;;47.50;42.00;;;;;;;;5058671;28;8989;-78
2021/01/12 20:34:14;;;;;;;;;46.25;39.00;;;;;;;;5060371;28;8866;-79
2021/01/12 20:36:44;;;;;;;;;54.25;43.00;;;;;;;;5059860;28;8827;-78
2021/01/12 20:39:12;;;;;;;;;52.25;41.75;;;;;;;;5059771;28;8865;-78
2021/01/12 20:41:43;;;;;;;;;50.25;42.50;;;;;;;;5060074;28;8854;-77
2021/01/12 20:44:12;;;;;;;;;41.33;39.00;;;;;;;;5059925;28;8842;-78
2021/01/12 20:46:42;;;;;;;;;40.50;38.25;;;;;;;;5060195;28;9046;-76
2021/01/12 20:49:08;;;;;;;;;51.00;41.75;;;;;;;;5058669;28;8938;-78
2021/01/12 20:51:39;;;;;;;;;41.00;37.67;;;;;;;;5062942;28;8861;-78
2021/01/12 20:54:05;;;;;;;;;45.00;42.00;;;;;;;;5065569;28;8846;-76
2021/01/12 20:56:31;;;;;;;;;41.75;39.00;;;;;;;;5075924;28;8852;-78
2021/01/12 20:58:58;;;;;;;;;48.25;42.25;;;;;;;;5067284;28;9717;-78
2021/01/12 21:01:24;;;;;;;;;46.00;42.25;;;;;;;;5064915;28;8873;-76
2021/01/12 21:03:50;;;;;;;;;49.25;40.75;;;;;;;;5062874;28;9545;-79
2021/01/12 21:06:17;;;;;;;;;37.25;34.25;;;;;;;;5062633;28;8957;-73
2021/01/12 21:08:43;;;;;;;;;50.00;43.00;;;;;;;;5063777;28;8885;-75
2021/01/12 21:11:12;;;;;;;;;49.25;43.25;;;;;;;;5074693;28;8855;-77
2021/01/12 21:13:38;;;;;;;;;50.25;43.00;;;;;;;;5071090;28;8839;-74
2021/01/12 21:16:05;;;;;;;;;49.50;42.50;;;;;;;;5073012;28;9548;-77
2021/01/12 21:18:31;;;;;;;;;47.00;42.00;;;;;;;;5074456;28;9041;-76
2021/01/12 21:20:57;;;;;;;;;42.00;36.25;;;;;;;;5077909;28;8969;-75
2021/01/12 21:23:22;;;;;;;;;52.75;43.00;;;;;;;;5072992;28;8867;-76
2021/01/12 21:25:49;;;;;;;;;50.50;42.50;;;;;;;;5073862;28;8853;-77
2021/01/12 21:28:14;;;;;;;;;49.25;43.00;;;;;;;;5073990;28;9714;-75
2021/01/12 21:30:40;;;;;;;;;44.25;41.50;;;;;;;;5070058;28;8839;-77
2021/01/12 21:33:07;;;;;;;;;50.50;40.25;;;;;;;;5066420;28;9561;-69
2021/01/12 21:35:33;;;;;;;;;47.75;41.75;;;;;;;;5061188;28;8969;-69
2021/01/12 21:38:00;;;;;;;;;49.00;42.00;;;;;;;;5073739;28;8942;-69
2021/01/12 21:40:26;;;;;;;;;54.75;42.75;;;;;;;;5076849;28;8966;-69
2021/01/12 21:42:52;;;;;;;;;44.75;40.25;;;;;;;;5078218;28;8855;-69
2021/01/12 21:45:18;;;;;;;;;46.50;39.00;;;;;;;;5076352;28;8936;-69
2021/01/12 21:47:44;;;;;;;;;49.00;39.00;;;;;;;;5066116;28;8830;-69
2021/01/12 21:50:12;;;;;;;;;47.00;39.75;;;;;;;;5058932;28;9562;-70
2021/01/12 21:52:38;;;;;;;;;50.00;42.00;;;;;;;;5058663;28;8983;-70
2021/01/12 21:55:04;;;;;;;;;42.25;39.00;;;;;;;;5059520;28;8996;-69
2021/01/12 21:57:30;;;;;;;;;49.25;40.50;;;;;;;;5061639;28;8838;-69
2021/01/12 21:59:56;;;;;;;;;42.33;39.00;;;;;;;;5058498;28;8850;-69
2021/01/12 22:02:22;;;;;;;;;45.67;39.33;;;;;;;;5062011;28;8841;-70
2021/01/12 22:04:48;;;;;;;;;38.67;37.00;;;;;;;;5058514;28;8850;-69
2021/01/12 22:07:15;;;;;;;;;41.75;38.00;;;;;;;;5060768;28;8845;-68
2021/01/12 22:09:41;;;;;;;;;50.25;41.75;;;;;;;;5059802;28;8965;-69
2021/01/12 22:12:07;;;;;;;;;48.50;38.75;;;;;;;;5066622;28;8965;-68
2021/01/12 22:14:33;;;;;;;;;52.00;39.25;;;;;;;;5064716;28;8981;-70
2021/01/12 22:16:59;;;;;;;;;43.33;38.67;;;;;;;;5058978;28;8838;-68
2021/01/12 22:19:25;;;;;;;;;52.00;42.75;;;;;;;;5061938;28;8953;-68
2021/01/12 22:21:51;;;;;;;;;47.00;37.50;;;;;;;;5058148;28;8842;-68
2021/01/12 22:24:18;;;;;;;;;40.00;36.50;;;;;;;;5061409;28;8927;-68
2021/01/12 22:26:44;;;;;;;;;39.50;38.25;;;;;;;;5058949;28;8965;-68
2021/01/12 22:29:10;;;;;;;;;43.50;33.00;;;;;;;;5059756;28;8846;-69
2021/01/12 22:31:36;;;;;;;;;49.50;40.25;;;;;;;;5059919;28;8843;-69
2021/01/12 22:34:02;;;;;;;;;41.00;36.50;;;;;;;;5058081;28;8865;-69
2021/01/12 22:36:28;;;;;;;;;47.50;42.00;;;;;;;;5061157;28;9551;-68
2021/01/12 22:38:54;;;;;;;;;34.00;34.00;;;;;;;;5058266;28;8938;-70
2021/01/12 22:41:22;;;;;;;;;42.00;33.75;;;;;;;;5061471;28;9583;-69
2021/01/12 22:43:49;;;;;;;;;48.00;40.25;;;;;;;;5057920;28;9763;-70
2021/01/12 22:46:15;;;;;;;;;38.00;34.75;;;;;;;;5060959;28;8839;-68
2021/01/12 22:48:41;;;;;;;;;42.75;40.25;;;;;;;;5059252;28;8965;-69
2021/01/12 22:51:07;;;;;;;;;44.50;36.75;;;;;;;;5059482;28;8821;-70
2021/01/12 22:53:33;;;;;;;;;41.75;38.50;;;;;;;;5060141;28;8858;-69
2021/01/12 22:55:59;;;;;;;;;40.67;39.33;;;;;;;;5058451;28;8981;-69
2021/01/12 22:58:26;;;;;;;;;37.75;32.50;;;;;;;;5060956;28;8843;-69
2021/01/12 23:00:52;;;;;;;;;42.25;36.50;;;;;;;;5057408;28;8830;-70
2021/01/12 23:03:18;;;;;;;;;45.75;36.00;;;;;;;;5060754;28;8873;-68
2021/01/12 23:05:44;;;;;;;;;32.00;31.75;;;;;;;;5058703;28;8985;-69
2021/01/12 23:08:10;;;;;;;;;44.75;40.00;;;;;;;;5057608;28;8846;-69
2021/01/12 23:10:35;;;;;;;;;57.50;39.75;;;;;;;;5066200;28;8839;-72
2021/01/12 23:13:01;;;;;;;;;36.25;32.00;;;;;;;;5059845;28;8960;-73
2021/01/12 23:15:28;;;;;;;;;42.00;37.75;;;;;;;;5058026;28;8992;-71
2021/01/12 23:17:54;;;;;;;;;42.00;37.50;;;;;;;;5061107;28;8966;-73
2021/01/12 23:20:22;;;;;;;;;43.25;40.50;;;;;;;;5061061;28;9563;-69
2021/01/12 23:22:48;;;;;;;;;51.25;43.00;;;;;;;;5056124;28;9070;-70
2021/01/12 23:25:14;;;;;;;;;45.50;40.00;;;;;;;;5058891;28;8968;-70
2021/01/12 23:27:41;;;;;;;;;48.25;38.25;;;;;;;;5058903;28;8846;-69
2021/01/12 23:30:08;;;;;;;;;46.00;41.50;;;;;;;;5058736;28;8977;-69
2021/01/12 23:32:39;;;;;;;;;49.25;41.75;;;;;;;;5057953;28;9016;-69
2021/01/12 23:35:07;;;;;;;;;52.00;46.75;;;;;;;;5058485;28;8834;-70
2021/01/12 23:37:32;;;;;;;;;68.25;56.00;;;;;;;;5059923;28;8934;-70
2021/01/12 23:39:58;;;;;;;;;41.50;38.00;;;;;;;;5057983;28;8845;-70
2021/01/12 23:42:24;;;;;;;;;49.75;42.50;;;;;;;;5060724;28;8972;-70
2021/01/12 23:44:50;;;;;;;;;51.00;44.00;;;;;;;;5061019;28;8835;-70
2021/01/12 23:47:16;;;;;;;;;49.50;41.25;;;;;;;;5064184;28;8843;-70
2021/01/12 23:49:43;;;;;;;;;50.50;43.25;;;;;;;;5062283;28;8846;-69
2021/01/12 23:52:09;;;;;;;;;51.00;43.50;;;;;;;;5062521;28;8988;-69
2021/01/12 23:54:35;;;;;;;;;56.25;46.75;;;;;;;;5063118;28;8835;-70
2021/01/12 23:57:01;;;;;;;;;57.75;46.00;;;;;;;;5061169;28;8850;-70
2021/01/12 23:59:26;;;;;;;;;55.75;48.75;;;;;;;;5061254;28;8884;-70
